Time;durP1;ratioP1;P1;durP2;ratioP2;P2;SDS_P1;SDS_P2;PMS_P1;PMS_P2;Temp;Humidity;BMP_temperature;BMP_pressure;BME280_temperature;BME280_humidity;BME280_pressure;Samples;Min_cycle;Max_cycle;Signal;HPM_P1;HPM_P2
2023/05/08 00:02:14;;;;;;;4.80;1.60;;;;;;;19.17;32.01;101014.13;107821;1290;21983;-59
2023/05/08 00:04:39;;;;;;;5.30;1.70;;;;;;;19.14;32.02;101016.33;107838;1290;21989;-59
2023/05/08 00:07:05;;;;;;;5.00;1.80;;;;;;;19.10;32.03;101016.30;107953;1290;21989;-59
2023/05/08 00:09:31;;;;;;;4.50;1.70;;;;;;;19.07;31.90;101016.62;107984;1290;22007;-59
2023/05/08 00:11:57;;;;;;;2.80;1.50;;;;;;;19.03;31.91;101018.54;107916;1290;22026;-59
2023/05/08 00:14:22;;;;;;;4.60;1.50;;;;;;;18.99;32.01;101014.42;107803;1290;22004;-59
2023/05/08 00:16:49;;;;;;;4.00;2.10;;;;;;;18.95;32.08;101011.89;107803;1290;21996;-59
2023/05/08 00:19:14;;;;;;;6.00;1.70;;;;;;;18.95;32.18;101010.11;107836;1290;21986;-61
2023/05/08 00:21:41;;;;;;;3.90;1.90;;;;;;;18.92;32.15;101011.80;107842;1290;22026;-59
2023/05/08 00:24:06;;;;;;;5.60;1.90;;;;;;;18.92;32.12;101012.67;107799;1290;21994;-59
2023/05/08 00:26:33;;;;;;;5.20;1.50;;;;;;;18.89;32.20;101019.73;107872;1290;21998;-59
2023/05/08 00:28:58;;;;;;;7.50;1.90;;;;;;;18.85;32.19;101021.98;108029;1289;22008;-59
2023/05/08 00:31:24;;;;;;;4.40;1.60;;;;;;;18.82;32.32;101019.77;107977;1289;21994;-59
2023/05/08 00:33:50;;;;;;;5.10;2.20;;;;;;;18.83;32.36;101020.65;107997;1290;21991;-59
2023/05/08 00:36:15;;;;;;;6.30;1.90;;;;;;;18.83;32.29;101025.08;107946;1290;22003;-59
2023/05/08 00:38:41;;;;;;;6.70;1.70;;;;;;;18.82;32.27;101028.70;107975;1290;22003;-59
2023/05/08 00:41:07;;;;;;;5.50;1.80;;;;;;;18.78;32.16;101028.10;107785;1290;21985;-60
2023/05/08 00:43:34;;;;;;;4.00;1.60;;;;;;;18.76;32.23;101023.95;107890;1290;22026;-59
2023/05/08 00:46:00;;;;;;;4.60;1.90;;;;;;;18.73;32.24;101023.88;107868;1290;21995;-59
2023/05/08 00:48:31;;;;;;;3.80;1.40;;;;;;;18.71;32.36;101025.53;107829;1290;21985;-59
2023/05/08 00:50:56;;;;;;;7.20;1.80;;;;;;;18.71;32.30;101026.61;107874;1290;21994;-59
2023/05/08 00:53:22;;;;;;;4.60;1.80;;;;;;;18.68;32.35;101028.30;107789;1290;21990;-59
2023/05/08 00:55:50;;;;;;;4.40;2.30;;;;;;;18.67;32.45;101023.17;107849;1290;21968;-59
2023/05/08 00:58:17;;;;;;;3.20;1.50;;;;;;;18.67;32.53;101024.78;107911;1290;22059;-59
2023/05/08 01:00:43;;;;;;;3.50;1.70;;;;;;;18.67;32.29;101028.70;107874;1290;21985;-59
2023/05/08 01:03:09;;;;;;;4.50;1.80;;;;;;;18.64;32.34;101027.75;107929;1290;22027;-59
2023/05/08 01:05:36;;;;;;;4.50;1.90;;;;;;;18.61;32.35;101025.36;107817;1290;21983;-58
2023/05/08 01:08:01;;;;;;;6.70;1.80;;;;;;;18.58;32.43;101020.81;107880;1290;21990;-59
2023/05/08 01:10:41;;;;;;;7.90;2.10;;;;;;;18.58;32.52;101020.47;106324;1290;1002696;-59
2023/05/08 01:13:40;;;;;;;5.40;1.80;;;;;;;18.58;32.57;101025.98;107911;1290;23143;-59
2023/05/08 01:16:29;;;;;;;4.70;1.60;;;;;;;18.58;32.55;101024.77;107866;1291;21999;-60
2023/05/08 01:19:15;;;;;;;5.90;2.20;;;;;;;18.56;32.56;101024.11;107823;1290;21990;-60
2023/05/08 01:21:43;;;;;;;6.60;1.90;;;;;;;18.54;32.57;101020.08;107749;1290;21999;-59
2023/05/08 01:24:27;;;;;;;5.50;1.90;;;;;;;18.54;32.64;101019.20;107906;1290;22001;-59
2023/05/08 01:27:15;;;;;;;5.80;2.00;;;;;;;18.53;32.44;101019.95;107929;1290;22026;-59
2023/05/08 01:29:53;;;;;;;8.20;2.10;;;;;;;18.51;32.30;101023.93;107807;1290;22007;-59
2023/05/08 01:32:26;;;;;;;6.50;1.70;;;;;;;18.47;32.33;101026.05;107843;1290;21989;-59
2023/05/08 01:34:52;;;;;;;5.40;2.10;;;;;;;18.46;32.46;101027.32;107870;1290;21990;-59
2023/05/08 01:37:26;;;;;;;6.00;1.60;;;;;;;18.45;32.23;101024.50;107744;1290;21997;-60
2023/05/08 01:40:01;;;;;;;5.00;1.90;;;;;;;18.42;32.03;101028.33;104819;1290;1003223;-59
2023/05/08 01:42:44;;;;;;;4.70;1.60;;;;;;;18.37;32.14;101030.62;107880;1290;21981;-59
2023/05/08 01:45:15;;;;;;;4.40;1.80;;;;;;;18.37;32.21;101029.02;107844;1290;21989;-60
2023/05/08 01:47:41;;;;;;;8.00;2.10;;;;;;;18.37;32.09;101033.64;107852;1290;21996;-60
2023/05/08 01:50:08;;;;;;;6.30;1.80;;;;;;;18.38;32.24;101034.13;107815;1291;21997;-57
2023/05/08 01:52:36;;;;;;;3.50;1.70;;;;;;;18.40;32.21;101039.40;107937;1290;21987;-59
2023/05/08 01:55:08;;;;;;;3.90;1.80;;;;;;;18.40;32.14;101041.36;107841;1290;22012;-58
2023/05/08 01:57:36;;;;;;;6.00;1.90;;;;;;;18.39;32.16;101043.00;107848;1290;21996;-58
2023/05/08 02:00:02;;;;;;;7.40;2.30;;;;;;;18.38;32.33;101045.16;107872;1290;21993;-58
2023/05/08 02:02:29;;;;;;;11.70;2.10;;;;;;;18.40;32.35;101042.08;107881;1290;22000;-58
2023/05/08 02:04:54;;;;;;;6.90;2.10;;;;;;;18.41;32.43;101041.16;107790;1290;23729;-58
2023/05/08 02:07:23;;;;;;;7.10;2.70;;;;;;;18.41;32.36;101040.79;105732;1290;1003041;-59
2023/05/08 02:09:49;;;;;;;5.80;2.00;;;;;;;18.42;32.34;101036.50;107790;1291;22153;-58
2023/05/08 02:12:15;;;;;;;6.40;1.70;;;;;;;18.44;32.36;101027.18;107753;1290;21997;-60
2023/05/08 02:14:41;;;;;;;8.50;1.60;;;;;;;18.46;32.32;101018.77;107919;1290;23717;-59
2023/05/08 02:17:08;;;;;;;9.40;2.60;;;;;;;18.47;32.26;101016.59;107791;1290;23445;-59
2023/05/08 02:19:35;;;;;;;7.20;2.10;;;;;;;18.48;32.26;101016.59;107871;1290;21992;-59
2023/05/08 02:22:00;;;;;;;7.00;2.20;;;;;;;18.49;32.17;101021.88;107768;1290;23640;-59
2023/05/08 02:24:26;;;;;;;7.70;1.90;;;;;;;18.50;32.15;101029.84;107726;1291;22002;-58
2023/05/08 02:26:52;;;;;;;6.90;1.90;;;;;;;18.50;32.06;101030.55;107747;1290;22041;-59
2023/05/08 02:29:17;;;;;;;7.60;2.10;;;;;;;18.43;32.05;101032.02;107869;1290;21992;-59
2023/05/08 02:31:43;;;;;;;7.90;2.10;;;;;;;18.38;32.22;101038.23;107886;1290;21988;-59
2023/05/08 02:34:08;;;;;;;10.00;2.10;;;;;;;18.40;32.15;101040.45;107823;1290;21989;-59
2023/05/08 02:36:35;;;;;;;5.10;2.20;;;;;;;18.40;32.09;101033.91;107873;1290;21990;-59
2023/05/08 02:39:01;;;;;;;8.30;2.00;;;;;;;18.38;31.97;101033.78;107857;1290;22047;-59
2023/05/08 02:41:29;;;;;;;9.90;2.10;;;;;;;18.36;31.99;101039.01;107992;1290;22046;-59
2023/05/08 02:43:55;;;;;;;8.30;2.30;;;;;;;18.33;32.09;101038.93;107867;1290;21998;-61
2023/05/08 02:46:26;;;;;;;9.10;1.90;;;;;;;18.30;32.12;101039.21;107101;1290;1002912;-58
2023/05/08 02:48:58;;;;;;;6.00;2.30;;;;;;;18.30;32.22;101042.08;107907;1290;22018;-58
2023/05/08 02:51:46;;;;;;;6.30;2.40;;;;;;;18.30;32.05;101043.48;107867;1290;22000;-59
2023/05/08 02:54:24;;;;;;;4.30;2.00;;;;;;;18.28;32.19;101046.02;107941;1290;21988;-59
2023/05/08 02:56:57;;;;;;;7.30;2.10;;;;;;;18.30;32.22;101044.73;107881;1290;21989;-59
2023/05/08 02:59:28;;;;;;;5.50;2.20;;;;;;;18.30;32.22;101039.58;107716;1291;21989;-59
2023/05/08 03:02:34;;;;;;;10.90;2.20;;;;;;;18.30;32.11;101036.91;107827;1290;21989;-58
2023/05/08 03:05:03;;;;;;;8.40;2.20;;;;;;;18.29;32.09;101038.73;107482;1290;21997;-59
2023/05/08 03:07:29;;;;;;;8.10;2.50;;;;;;;18.28;31.96;101040.87;107771;1290;21997;-59
2023/05/08 03:10:00;;;;;;;10.40;2.70;;;;;;;18.28;31.99;101041.77;107772;1290;21998;-59
2023/05/08 03:12:27;;;;;;;4.60;2.00;;;;;;;18.28;32.03;101043.73;107787;1290;22046;-59
2023/05/08 03:15:02;;;;;;;6.30;2.30;;;;;;;18.27;32.00;101046.06;107658;1286;21985;-59
2023/05/08 03:17:28;;;;;;;7.50;1.70;;;;;;;18.28;32.15;101048.17;107955;1290;23072;-59
2023/05/08 03:19:56;;;;;;;7.10;2.30;;;;;;;18.26;32.06;101052.65;107798;1290;22050;-59
2023/05/08 03:22:21;;;;;;;7.90;1.80;;;;;;;18.25;32.03;101059.98;107890;1290;21989;-59
2023/05/08 03:24:47;;;;;;;4.70;2.20;;;;;;;18.25;32.12;101060.33;107913;1290;22030;-60
2023/05/08 03:27:13;;;;;;;7.00;1.90;;;;;;;18.26;32.24;101060.34;107780;1290;21994;-61
2023/05/08 03:29:39;;;;;;;9.20;2.20;;;;;;;18.29;32.21;101063.59;107836;1290;21989;-59
2023/05/08 03:32:05;;;;;;;7.00;2.10;;;;;;;18.31;32.23;101062.30;107689;1290;21995;-59
2023/05/08 03:34:31;;;;;;;17.10;2.40;;;;;;;18.32;32.01;101059.23;107801;1289;21994;-59
2023/05/08 03:36:57;;;;;;;27.80;3.60;;;;;;;18.32;32.15;101061.38;107768;1290;22052;-58
2023/05/08 03:39:24;;;;;;;13.90;2.70;;;;;;;18.33;32.39;101059.36;107796;1285;21992;-57
2023/05/08 03:41:50;;;;;;;11.40;2.30;;;;;;;18.38;32.50;101059.92;107859;1290;21992;-57
2023/05/08 03:44:16;;;;;;;13.20;2.50;;;;;;;18.42;32.51;101056.95;107769;1290;21990;-57
2023/05/08 03:46:42;;;;;;;11.60;2.10;;;;;;;18.45;32.47;101063.59;107811;1290;21990;-59
2023/05/08 03:49:08;;;;;;;9.10;2.60;;;;;;;18.48;32.51;101072.38;107718;1290;22019;-57
2023/05/08 03:51:36;;;;;;;10.20;2.60;;;;;;;18.49;32.46;101086.39;107878;1290;21985;-59
2023/05/08 03:54:01;;;;;;;6.80;2.10;;;;;;;18.50;32.48;101097.54;107844;1290;21989;-59
2023/05/08 03:56:27;;;;;;;16.60;2.70;;;;;;;18.49;32.42;101098.80;107862;1290;21996;-59
2023/05/08 03:59:03;;;;;;;9.20;2.30;;;;;;;18.49;32.42;101106.99;107833;1290;22006;-58
2023/05/08 04:01:41;;;;;;;12.50;2.90;;;;;;;18.49;32.30;101107.88;107823;1291;22054;-60
2023/05/08 04:04:40;;;;;;;9.70;2.00;;;;;;;18.47;32.42;101109.90;107800;1291;22098;-58
2023/05/08 04:07:08;;;;;;;52.80;4.80;;;;;;;18.46;32.42;101109.74;107806;1291;21995;-59
2023/05/08 04:09:37;;;;;;;62.80;4.70;;;;;;;18.46;32.54;101111.16;107769;1291;21986;-59
2023/05/08 04:12:13;;;;;;;30.80;3.40;;;;;;;18.47;32.78;101112.39;107668;1291;21997;-59
2023/05/08 04:14:43;;;;;;;16.70;2.70;;;;;;;18.49;32.88;101113.92;107674;1291;21995;-58
2023/05/08 04:17:09;;;;;;;9.00;2.60;;;;;;;18.51;32.90;101116.14;107917;1291;22001;-58
2023/05/08 04:19:38;;;;;;;11.20;2.30;;;;;;;18.53;32.89;101114.48;107941;1290;23690;-58
2023/05/08 04:22:06;;;;;;;17.10;2.90;;;;;;;18.51;32.96;101111.34;107783;1291;22003;-58
2023/05/08 04:24:34;;;;;;;9.70;2.80;;;;;;;18.54;33.01;101112.30;107872;1286;22004;-58
2023/05/08 04:27:00;;;;;;;6.70;2.50;;;;;;;18.55;32.83;101116.70;107884;1291;22127;-57
2023/05/08 04:29:26;;;;;;;15.50;2.50;;;;;;;18.53;32.86;101120.36;107878;1291;22279;-58
2023/05/08 04:31:51;;;;;;;21.80;3.80;;;;;;;18.53;32.91;101122.84;107624;1291;21993;-59
2023/05/08 04:34:17;;;;;;;8.00;2.20;;;;;;;18.54;32.81;101120.13;107624;1285;23647;-60
2023/05/08 04:36:43;;;;;;;13.60;2.40;;;;;;;18.56;32.69;101119.19;107631;1291;22003;-59
2023/05/08 04:39:08;;;;;;;9.40;2.60;;;;;;;18.56;32.55;101117.57;107679;1291;22204;-60
2023/05/08 04:41:34;;;;;;;8.00;2.20;;;;;;;18.53;32.63;101120.88;107918;1289;21993;-60
2023/05/08 04:44:01;;;;;;;10.70;2.50;;;;;;;18.45;32.80;101126.12;107764;1287;22001;-59
2023/05/08 04:46:26;;;;;;;6.20;2.30;;;;;;;18.42;32.74;101127.82;106994;1291;1002368;-59
2023/05/08 04:48:52;;;;;;;18.20;3.30;;;;;;;18.38;32.79;101128.64;107673;1291;22031;-58
2023/05/08 04:51:18;;;;;;;10.10;2.40;;;;;;;18.41;32.84;101124.64;107642;1291;22003;-58
2023/05/08 04:53:43;;;;;;;8.50;2.80;;;;;;;18.51;32.72;101122.21;107663;1291;21989;-58
2023/05/08 04:56:09;;;;;;;10.80;2.50;;;;;;;18.55;32.70;101125.44;107624;1291;21989;-59
2023/05/08 04:58:35;;;;;;;11.20;2.60;;;;;;;18.59;32.75;101126.00;107741;1291;21994;-59
2023/05/08 05:01:02;;;;;;;17.50;3.00;;;;;;;18.65;32.75;101126.89;107703;1290;21997;-59
2023/05/08 05:03:27;;;;;;;10.70;2.60;;;;;;;18.68;32.75;101133.17;105588;1290;1006102;-59
2023/05/08 05:06:00;;;;;;;7.80;2.60;;;;;;;18.71;32.65;101139.11;107819;1290;21988;-59
2023/05/08 05:08:25;;;;;;;7.50;2.30;;;;;;;18.76;32.69;101141.96;107827;1290;21986;-60
2023/05/08 05:10:51;;;;;;;8.70;2.50;;;;;;;18.80;32.93;101142.55;107840;1290;22009;-59
2023/05/08 05:13:18;;;;;;;6.60;2.30;;;;;;;18.83;32.89;101141.02;107822;1290;21996;-59
2023/05/08 05:15:44;;;;;;;14.90;3.30;;;;;;;18.87;32.89;101139.44;107916;1290;21999;-58
2023/05/08 05:18:10;;;;;;;12.70;3.40;;;;;;;18.91;32.84;101138.95;107838;1290;21993;-60
2023/05/08 05:20:36;;;;;;;5.60;2.20;;;;;;;18.94;32.85;101141.20;107792;1290;21990;-59
2023/05/08 05:23:02;;;;;;;6.60;2.30;;;;;;;18.90;32.98;101140.09;107837;1290;22009;-59
2023/05/08 05:25:28;;;;;;;14.00;3.00;;;;;;;18.87;33.08;101138.55;107865;1290;22055;-60
2023/05/08 05:27:54;;;;;;;8.40;2.20;;;;;;;19.03;33.06;101136.98;107838;1290;22006;-60
2023/05/08 05:30:19;;;;;;;18.50;3.20;;;;;;;19.11;32.95;101138.13;107843;1288;21985;-59
2023/05/08 05:32:45;;;;;;;7.20;2.20;;;;;;;19.16;32.90;101140.79;107847;1289;21996;-59
2023/05/08 05:35:11;;;;;;;27.00;5.90;;;;;;;19.21;33.10;101142.57;107919;1290;21991;-59
2023/05/08 05:37:37;;;;;;;17.10;3.90;;;;;;;19.21;33.07;101139.19;107884;1290;21988;-60
2023/05/08 05:40:03;;;;;;;16.10;4.30;;;;;;;19.26;33.09;101139.89;107915;1284;21999;-58
2023/05/08 05:42:30;;;;;;;11.80;2.60;;;;;;;19.32;32.97;101136.48;107794;1290;22007;-59
2023/05/08 05:44:56;;;;;;;9.90;2.50;;;;;;;19.34;32.97;101137.47;107849;1290;21992;-58
2023/05/08 05:47:22;;;;;;;10.00;2.70;;;;;;;19.36;32.91;101136.31;107730;1290;21993;-58
2023/05/08 05:49:48;;;;;;;7.00;2.50;;;;;;;19.38;33.00;101137.33;107813;1290;22084;-59
2023/05/08 05:52:13;;;;;;;10.10;2.90;;;;;;;19.40;32.88;101134.20;107823;1290;21990;-59
2023/05/08 05:54:40;;;;;;;5.70;2.40;;;;;;;19.44;32.87;101136.37;107867;1290;21999;-58
2023/05/08 05:57:06;;;;;;;6.90;2.20;;;;;;;19.49;32.82;101137.29;107769;1289;21986;-57
2023/05/08 05:59:32;;;;;;;7.00;2.50;;;;;;;19.53;32.90;101135.34;107811;1290;22099;-59
2023/05/08 06:01:58;;;;;;;10.90;2.90;;;;;;;19.57;32.91;101141.23;107805;1290;22279;-57
2023/05/08 06:04:23;;;;;;;9.90;2.50;;;;;;;19.61;32.95;101144.30;107847;1286;21996;-59
2023/05/08 06:06:49;;;;;;;8.60;2.90;;;;;;;19.66;32.92;101138.75;107855;1290;21992;-58
2023/05/08 06:09:15;;;;;;;13.20;2.50;;;;;;;19.73;33.02;101139.91;107138;1290;1003176;-58
2023/05/08 06:11:41;;;;;;;7.10;2.20;;;;;;;19.80;32.96;101145.52;107857;1290;22045;-58
2023/05/08 06:14:06;;;;;;;18.90;3.10;;;;;;;19.79;32.92;101142.18;107858;1290;23075;-59
2023/05/08 06:16:32;;;;;;;18.60;4.10;;;;;;;19.86;32.93;101143.16;107830;1290;23622;-60
2023/05/08 06:18:57;;;;;;;25.30;3.50;;;;;;;19.93;32.86;101144.69;107805;1290;21987;-59
2023/05/08 06:21:23;;;;;;;18.40;2.80;;;;;;;19.97;32.81;101139.39;107833;1290;22000;-59
2023/05/08 06:23:49;;;;;;;41.70;4.30;;;;;;;19.96;32.91;101141.02;107864;1290;21990;-58
2023/05/08 06:26:14;;;;;;;24.70;3.70;;;;;;;19.98;32.89;101138.29;107850;1290;21993;-59
2023/05/08 06:28:40;;;;;;;18.70;3.10;;;;;;;20.00;32.78;101135.91;107776;1290;21999;-61
2023/05/08 06:31:06;;;;;;;18.70;3.60;;;;;;;20.00;32.73;101137.84;107855;1290;21992;-59
2023/05/08 06:33:31;;;;;;;14.40;3.00;;;;;;;19.99;32.74;101141.25;107853;1290;21993;-59
2023/05/08 06:35:57;;;;;;;13.80;3.40;;;;;;;20.02;32.95;101139.00;107827;1290;21992;-58
2023/05/08 06:38:23;;;;;;;24.10;3.90;;;;;;;20.08;33.03;101137.70;107824;1290;22004;-59
2023/05/08 06:40:49;;;;;;;15.40;3.20;;;;;;;20.13;32.83;101134.64;107809;1290;21971;-59
2023/05/08 06:43:15;;;;;;;14.20;3.40;;;;;;;20.16;32.87;101131.65;107814;1290;22083;-59
2023/05/08 06:45:42;;;;;;;10.00;2.60;;;;;;;20.18;32.76;101129.66;107976;1290;22001;-59
2023/05/08 06:48:08;;;;;;;9.50;2.50;;;;;;;20.19;32.84;101129.75;107814;1290;22000;-60
2023/05/08 06:50:36;;;;;;;10.60;2.40;;;;;;;20.24;32.88;101128.52;107947;1290;21992;-59
2023/05/08 06:53:02;;;;;;;9.90;2.60;;;;;;;20.27;32.82;101129.45;107869;1290;22011;-59
2023/05/08 06:55:28;;;;;;;11.90;2.80;;;;;;;20.29;32.93;101130.46;107831;1290;21994;-60
2023/05/08 06:57:53;;;;;;;8.30;2.60;;;;;;;20.33;32.89;101132.21;107844;1290;21995;-60
2023/05/08 07:00:19;;;;;;;6.50;2.40;;;;;;;20.40;32.94;101136.77;107847;1290;21994;-59
2023/05/08 07:02:45;;;;;;;9.20;2.70;;;;;;;20.46;32.93;101137.95;107827;1290;21994;-59
2023/05/08 07:05:11;;;;;;;9.90;2.10;;;;;;;20.52;32.99;101141.27;107843;1290;21981;-59
2023/05/08 07:07:37;;;;;;;10.10;2.60;;;;;;;20.58;32.82;101137.80;107700;1290;22008;-60
2023/05/08 07:10:03;;;;;;;7.50;2.60;;;;;;;20.67;32.84;101136.35;107652;1291;21976;-59
2023/05/08 07:12:29;;;;;;;5.90;2.30;;;;;;;20.76;32.89;101136.52;107687;1291;21991;-59
2023/05/08 07:14:55;;;;;;;9.70;2.60;;;;;;;20.86;32.84;101141.11;107705;1287;22000;-58
2023/05/08 07:17:21;;;;;;;7.30;2.40;;;;;;;20.98;33.04;101148.27;107665;1291;22024;-59
2023/05/08 07:19:50;;;;;;;8.00;2.30;;;;;;;21.14;33.03;101150.94;107805;1291;22009;-59
2023/05/08 07:22:16;;;;;;;8.00;3.30;;;;;;;21.33;32.84;101154.05;107934;1291;22047;-59
2023/05/08 07:24:41;;;;;;;8.30;2.70;;;;;;;21.49;32.70;101158.84;107698;1291;21993;-59
2023/05/08 07:27:08;;;;;;;5.90;2.40;;;;;;;21.63;32.63;101167.50;107666;1291;22014;-59
2023/05/08 07:29:34;;;;;;;14.80;2.70;;;;;;;21.80;32.60;101167.98;107755;1290;21996;-59
2023/05/08 07:32:01;;;;;;;6.60;2.40;;;;;;;22.00;32.74;101164.20;107938;1290;22029;-59
2023/05/08 07:34:27;;;;;;;4.60;2.30;;;;;;;22.26;32.68;101165.45;107986;1289;22027;-59
2023/05/08 07:36:52;;;;;;;14.20;3.20;;;;;;;22.60;32.64;101162.20;107900;1290;21995;-59
2023/05/08 07:39:18;;;;;;;8.10;2.90;;;;;;;22.99;32.88;101155.19;107862;1289;21989;-60
2023/05/08 07:41:44;;;;;;;4.90;2.50;;;;;;;23.44;32.81;101147.14;107870;1290;21997;-59
2023/05/08 07:44:10;;;;;;;7.30;2.20;;;;;;;23.86;32.51;101140.39;107904;1290;22032;-61
2023/05/08 07:46:36;;;;;;;11.70;2.40;;;;;;;24.17;32.24;101139.76;107810;1290;22100;-59
2023/05/08 07:49:02;;;;;;;9.90;2.70;;;;;;;24.42;32.07;101138.82;107107;1290;1002604;-60
2023/05/08 07:51:28;;;;;;;13.10;2.60;;;;;;;24.63;31.69;101139.02;107888;1290;21992;-60
2023/05/08 07:53:54;;;;;;;9.10;2.70;;;;;;;24.75;31.44;101144.61;107882;1290;21991;-59
2023/05/08 07:56:21;;;;;;;26.90;3.70;;;;;;;24.85;31.26;101146.89;107853;1290;22047;-60
2023/05/08 07:58:47;;;;;;;10.90;3.10;;;;;;;25.01;31.16;101145.59;107863;1290;21993;-60
2023/05/08 08:01:13;;;;;;;8.40;3.10;;;;;;;25.20;31.12;101145.83;107929;1289;21998;-60
2023/05/08 08:03:38;;;;;;;6.10;2.40;;;;;;;25.39;31.11;101138.05;107836;1277;21990;-60
2023/05/08 08:06:04;;;;;;;6.70;2.20;;;;;;;25.57;31.01;101135.14;107882;1290;21991;-60
2023/05/08 08:08:30;;;;;;;12.50;2.60;;;;;;;25.70;31.08;101133.42;107843;1289;21987;-60
2023/05/08 08:10:55;;;;;;;8.70;2.90;;;;;;;25.91;30.74;101124.52;107813;1290;21992;-61
2023/05/08 08:13:21;;;;;;;10.10;2.90;;;;;;;26.06;30.55;101126.98;107822;1289;21996;-60
2023/05/08 08:15:47;;;;;;;15.30;3.20;;;;;;;26.19;30.30;101127.05;107751;1290;139333;-60
2023/05/08 08:18:13;;;;;;;6.10;2.30;;;;;;;26.27;30.08;101130.65;107862;1290;21983;-62
2023/05/08 08:20:38;;;;;;;5.80;2.30;;;;;;;26.35;29.88;101136.64;107920;1290;21995;-60
2023/05/08 08:43:52;;;;;;;5.20;2.20;;;;;;;27.23;30.58;101119.08;107732;1294;21993;-59
2023/05/08 08:46:18;;;;;;;4.30;1.80;;;;;;;27.74;30.19;101120.37;107770;1294;21995;-60
2023/05/08 08:48:45;;;;;;;5.30;2.00;;;;;;;28.03;29.47;101125.27;107845;1295;21997;-59
2023/05/08 08:51:27;;;;;;;3.90;2.20;;;;;;;28.23;29.35;101120.36;107728;1294;22013;-62
2023/05/08 08:54:13;;;;;;;3.90;1.80;;;;;;;28.41;29.05;101120.83;107664;1292;197814;-60
2023/05/08 08:56:41;;;;;;;5.00;1.60;;;;;;;28.50;28.71;101123.03;107800;1283;21995;-60
2023/05/08 08:59:07;;;;;;;6.40;2.20;;;;;;;28.56;28.74;101121.11;107768;1292;21999;-60
2023/05/08 09:01:34;;;;;;;5.40;2.00;;;;;;;28.67;28.44;101123.57;107746;1292;21987;-61
2023/05/08 09:04:01;;;;;;;5.60;2.20;;;;;;;28.78;28.26;101123.40;107853;1292;22027;-61
2023/05/08 09:06:27;;;;;;;5.70;1.90;;;;;;;28.88;28.03;101120.31;107834;1292;22028;-60
2023/05/08 09:08:59;;;;;;;5.70;1.80;;;;;;;29.02;27.81;101117.58;107773;1292;23644;-60
2023/05/08 09:11:25;;;;;;;7.40;1.80;;;;;;;29.29;27.70;101114.75;107805;1292;22027;-60
2023/05/08 09:13:50;;;;;;;5.40;2.00;;;;;;;29.54;27.40;101114.56;107793;1292;21992;-60
2023/05/08 09:16:17;;;;;;;9.30;2.20;;;;;;;29.77;27.31;101108.58;107755;1292;22010;-60
2023/05/08 09:18:42;;;;;;;5.00;2.50;;;;;;;30.01;27.27;101107.14;107969;1288;21987;-60
2023/05/08 09:21:08;;;;;;;7.00;2.40;;;;;;;30.28;27.18;101104.34;108050;1292;21987;-62
2023/05/08 09:23:35;;;;;;;7.70;1.60;;;;;;;30.68;26.97;101101.55;107974;1292;22027;-60
2023/05/08 09:26:01;;;;;;;4.40;2.10;;;;;;;31.00;26.93;101100.65;108104;1291;22176;-61
2023/05/08 09:28:27;;;;;;;4.60;1.70;;;;;;;31.31;26.54;101096.86;107935;1289;22453;-60
2023/05/08 09:30:54;;;;;;;6.40;2.10;;;;;;;31.50;26.34;101096.39;107883;1291;21992;-62
2023/05/08 09:33:22;;;;;;;6.40;2.10;;;;;;;31.73;26.41;101095.10;108081;1292;21987;-60
2023/05/08 09:35:48;;;;;;;5.40;2.30;;;;;;;31.99;26.00;101099.65;108103;1292;22166;-62
2023/05/08 09:38:36;;;;;;;7.10;2.00;;;;;;;32.10;25.94;101096.65;107766;1292;21986;-60
2023/05/08 09:41:13;;;;;;;6.10;1.80;;;;;;;32.19;25.84;101094.67;107971;1290;22167;-60
2023/05/08 09:43:39;;;;;;;4.90;2.10;;;;;;;32.10;25.16;101094.04;107849;1292;23643;-62
2023/05/08 09:46:25;;;;;;;5.10;2.10;;;;;;;31.92;25.27;101092.66;107892;1292;21990;-62
2023/05/08 09:48:57;;;;;;;5.90;1.90;;;;;;;31.86;25.16;101091.56;109055;1292;21996;-58
2023/05/08 09:51:24;;;;;;;6.10;1.90;;;;;;;31.81;25.10;101090.06;107726;1292;22002;-61
2023/05/08 09:53:54;;;;;;;4.70;1.80;;;;;;;31.76;25.13;101087.63;107670;1292;22006;-59
2023/05/08 09:56:32;;;;;;;5.80;1.90;;;;;;;31.80;25.37;101088.63;107797;1291;22291;-59
2023/05/08 09:58:58;;;;;;;6.20;1.90;;;;;;;31.86;25.33;101083.54;107946;1292;21999;-59
2023/05/08 10:01:27;;;;;;;4.70;1.60;;;;;;;31.84;25.30;101078.84;107832;1292;21999;-60
2023/05/08 10:03:53;;;;;;;5.40;1.50;;;;;;;31.84;25.04;101080.49;107894;1290;22001;-60
2023/05/08 10:06:19;;;;;;;4.10;1.40;;;;;;;31.80;24.28;101081.76;107779;1292;22459;-60
2023/05/08 10:08:45;;;;;;;4.90;1.30;;;;;;;31.57;24.30;101082.70;107888;1290;21995;-60
2023/05/08 10:11:16;;;;;;;5.40;1.70;;;;;;;31.35;24.25;101084.48;107817;1292;22012;-60
2023/05/08 10:13:43;;;;;;;3.20;1.70;;;;;;;31.13;24.10;101087.03;107948;1291;22760;-61
2023/05/08 10:16:16;;;;;;;5.80;1.40;;;;;;;30.93;24.23;101089.85;107860;1291;21992;-60
2023/05/08 10:18:50;;;;;;;4.60;1.50;;;;;;;30.76;24.32;101090.04;107790;1291;21979;-61
2023/05/08 10:21:16;;;;;;;7.00;1.60;;;;;;;30.62;24.22;101093.88;107728;1291;23610;-60
2023/05/08 10:23:42;;;;;;;5.00;1.60;;;;;;;30.53;24.41;101094.45;107765;1291;22035;-61
2023/05/08 10:26:21;;;;;;;5.30;2.10;;;;;;;30.50;24.46;101095.97;107766;1291;21999;-61
2023/05/08 10:28:57;;;;;;;6.70;2.20;;;;;;;30.50;24.52;101098.14;107930;1291;21989;-61
2023/05/08 10:31:24;;;;;;;2.10;1.20;;;;;;;30.51;24.56;101097.88;107840;1291;21996;-61
2023/05/08 10:33:53;;;;;;;3.20;1.30;;;;;;;30.54;24.64;101092.59;107791;1290;21986;-60
2023/05/08 10:36:19;;;;;;;6.60;1.70;;;;;;;30.58;24.54;101092.50;107842;1290;21990;-61
2023/05/08 10:38:45;;;;;;;4.10;1.60;;;;;;;30.56;24.49;101094.24;107510;1291;21983;-60
2023/05/08 10:41:11;;;;;;;3.40;1.30;;;;;;;30.53;24.48;101096.61;107505;1291;21992;-59
2023/05/08 10:43:40;;;;;;;2.10;1.30;;;;;;;30.58;24.60;101093.02;107922;1291;21992;-61
2023/05/08 10:46:40;;;;;;;3.70;1.40;;;;;;;30.56;24.41;101088.63;107840;1289;22452;-60
2023/05/08 10:49:19;;;;;;;3.40;1.40;;;;;;;30.50;24.16;101088.96;107967;1291;21998;-62
2023/05/08 10:51:48;;;;;;;5.50;1.20;;;;;;;30.42;24.00;101089.59;107844;1291;21986;-61
2023/05/08 10:54:51;;;;;;;5.10;1.30;;;;;;;30.30;23.77;101086.84;107878;1291;22001;-60
2023/05/08 10:57:17;;;;;;;3.60;1.40;;;;;;;30.05;23.88;101092.70;107847;1291;22000;-61
2023/05/08 10:59:46;;;;;;;4.10;1.40;;;;;;;29.91;24.01;101088.61;107806;1291;21994;-60
2023/05/08 11:02:12;;;;;;;3.00;1.10;;;;;;;29.83;23.97;101087.60;107763;1291;22160;-60
2023/05/08 11:04:37;;;;;;;7.40;1.60;;;;;;;29.77;24.17;101087.09;107767;1292;22030;-60
2023/05/08 11:07:03;;;;;;;10.80;2.10;;;;;;;29.69;24.25;101089.85;107817;1292;22008;-61
2023/05/08 11:09:55;;;;;;;6.50;1.70;;;;;;;29.65;24.36;101092.19;107814;1292;21992;-60
2023/05/08 11:12:25;;;;;;;7.00;2.20;;;;;;;29.54;24.15;101089.63;107792;1291;22461;-60
2023/05/08 11:15:04;;;;;;;7.70;1.80;;;;;;;29.42;24.20;101088.44;107798;1291;22026;-61
2023/05/08 11:17:31;;;;;;;4.30;1.40;;;;;;;29.32;24.29;101083.98;107805;1291;23136;-60
2023/05/08 11:19:58;;;;;;;6.70;1.60;;;;;;;29.22;24.08;101085.32;107728;1291;23075;-60
2023/05/08 11:22:25;;;;;;;5.00;1.20;;;;;;;29.13;24.15;101082.75;107829;1291;22024;-61
2023/05/08 11:24:53;;;;;;;6.20;1.50;;;;;;;29.04;24.13;101078.95;107810;1292;22452;-60
2023/05/08 11:27:49;;;;;;;2.90;1.30;;;;;;;28.98;24.15;101080.91;107793;1291;21992;-61
2023/05/08 11:30:31;;;;;;;4.00;1.20;;;;;;;28.90;23.98;101080.46;107795;1291;21992;-61
2023/05/08 11:33:03;;;;;;;4.80;1.40;;;;;;;28.77;24.15;101081.82;107813;1291;21977;-61
2023/05/08 11:35:55;;;;;;;7.40;2.10;;;;;;;28.73;24.15;101079.37;107797;1291;21992;-60
2023/05/08 11:38:24;;;;;;;8.50;1.50;;;;;;;28.63;24.25;101075.63;107762;1291;22021;-62
2023/05/08 11:41:20;;;;;;;7.10;1.70;;;;;;;28.52;24.33;101074.35;107816;1287;21994;-62
2023/05/08 11:43:52;;;;;;;3.90;1.40;;;;;;;28.40;24.55;101072.91;107784;1291;23235;-60